La Plata, New Mexico
Current Conditions -  °F | °C
As of 10:53 AM on Friday 31 Oct 2014 (Local Time) from KFMN Reporting Station
Clear Clear  
Wind Chill: 59°   Ceiling: Unl
Heat Index: 59°   Visibility: 10mi
Dew Point: 23°   Wind: 10mph
Humidity: 25%   Direction: 90°E
Pressure: 30.29"   Gusts: NA
Location:  36.93°N, 108.19°W
Report Text: KFMN 311653Z 09009KT 10SM CLR 15/M05 A3029 RMK AO2 SLP234 T01501050
Loading
Personal Weather Stations






























Interactive Weather Map
Tropical Storm Tracking
New forecast layout! Learn more

10-Day Weather Forecast

Advertisements
Track Severe Weather on mobile